Time;durP1;ratioP1;P1;durP2;ratioP2;P2;SDS_P1;SDS_P2;PMS_P1;PMS_P2;Temp;Humidity;BMP_temperature;BMP_pressure;BME280_temperature;BME280_humidity;BME280_pressure;Samples;Min_cycle;Max_cycle;Signal;HPM_P1;HPM_P2
2022/03/24 00:00:14;;;;;;;9.65;8.38;;;;;;;9.56;36.96;96391.06;4971923;28;20031;-71
2022/03/24 00:02:39;;;;;;;11.38;8.00;;;;;;;9.35;37.13;96358.41;4974598;28;20435;-71
2022/03/24 00:05:05;;;;;;;10.30;9.05;;;;;;;9.20;37.43;96331.88;4975762;28;20026;-71
2022/03/24 00:07:30;;;;;;;9.88;8.13;;;;;;;9.44;37.50;96369.31;4958366;28;20412;-70
2022/03/24 00:09:56;;;;;;;10.27;8.57;;;;;;;9.50;37.87;96380.72;4975319;28;20484;-71
2022/03/24 00:12:24;;;;;;;9.98;7.43;;;;;;;9.29;37.19;96351.53;4957901;28;20123;-71
2022/03/24 00:14:49;;;;;;;11.77;7.88;;;;;;;9.44;37.50;96377.28;4958052;28;20488;-72
2022/03/24 00:17:15;;;;;;;9.40;8.00;;;;;;;9.41;37.48;96372.50;4957900;28;20063;-71
2022/03/24 00:19:40;;;;;;;12.27;8.23;;;;;;;8.95;37.68;96314.06;4975231;28;20026;-72
2022/03/24 00:22:05;;;;;;;8.57;7.50;;;;;;;9.00;38.54;96363.72;4975142;28;20384;-71
2022/03/24 00:24:31;;;;;;;10.82;7.90;;;;;;;8.95;38.52;96324.69;4988739;28;20080;-71
2022/03/24 00:26:56;;;;;;;9.13;7.75;;;;;;;9.19;38.27;96350.72;4994708;28;20023;-71
2022/03/24 00:29:22;;;;;;;11.15;7.15;;;;;;;8.83;37.97;96300.28;4976928;28;20061;-71
2022/03/24 00:31:47;;;;;;;8.98;7.90;;;;;;;9.16;38.00;96361.88;4994378;28;20493;-71
2022/03/24 00:34:13;;;;;;;9.38;7.57;;;;;;;8.92;38.87;96348.31;4976704;28;20033;-69
2022/03/24 00:36:38;;;;;;;10.68;7.57;;;;;;;8.81;39.91;96379.34;4993199;28;20041;-71
2022/03/24 00:39:04;;;;;;;9.73;7.70;;;;;;;8.51;40.57;96334.97;4976898;28;20018;-69
2022/03/24 00:41:29;;;;;;;9.23;7.90;;;;;;;8.48;40.33;96327.53;4994317;28;20026;-69
2022/03/24 00:43:56;;;;;;;8.40;7.53;;;;;;;8.24;41.02;96362.41;4994271;28;20022;-70
2022/03/24 00:46:23;;;;;;;8.90;7.47;;;;;;;7.56;42.06;96296.09;4976933;28;20379;-70
2022/03/24 00:48:50;;;;;;;12.63;7.60;;;;;;;7.49;41.38;96255.81;4994054;28;20052;-70
2022/03/24 00:51:18;;;;;;;10.48;7.07;;;;;;;8.18;41.19;96357.34;4976628;28;20027;-70
2022/03/24 00:53:43;;;;;;;8.38;7.47;;;;;;;7.84;40.97;96293.34;4976660;28;20145;-70
2022/03/24 00:56:10;;;;;;;10.68;7.95;;;;;;;7.80;41.35;96327.47;4976794;28;20121;-69
2022/03/24 00:58:35;;;;;;;9.43;7.25;;;;;;;7.92;41.72;96356.41;4976405;28;20123;-70
2022/03/24 01:01:03;;;;;;;8.65;7.55;;;;;;;7.99;42.17;96370.25;4993802;28;20483;-70
2022/03/24 01:03:28;;;;;;;12.50;7.55;;;;;;;8.15;41.14;96340.13;4976429;28;20033;-69
2022/03/24 01:05:53;;;;;;;9.18;7.18;;;;;;;8.18;41.12;96378.53;4994038;28;20477;-70
2022/03/24 01:08:20;;;;;;;9.70;7.80;;;;;;;7.77;42.46;96370.38;4968870;28;20031;-69
2022/03/24 01:10:46;;;;;;;10.35;7.82;;;;;;;7.39;42.97;96329.09;4937617;29;20113;-69
2022/03/24 01:13:11;;;;;;;10.30;7.93;;;;;;;7.62;42.97;96370.25;4953928;28;20110;-69
2022/03/24 01:15:36;;;;;;;16.98;7.88;;;;;;;7.23;43.93;96373.16;4954090;28;20055;-69
2022/03/24 01:18:02;;;;;;;9.90;7.75;;;;;;;6.73;44.85;96324.84;4955255;29;20472;-69
2022/03/24 01:20:30;;;;;;;9.82;7.68;;;;;;;7.01;43.99;96325.59;4954772;29;20071;-69
2022/03/24 01:22:56;;;;;;;9.25;7.72;;;;;;;7.40;43.65;96368.53;4953872;28;20037;-70
2022/03/24 01:25:27;;;;;;;11.85;7.85;;;;;;;7.46;42.64;96311.91;4955101;29;20031;-68
2022/03/24 01:27:53;;;;;;;9.15;8.20;;;;;;;7.45;42.85;96304.25;4955035;28;20034;-70
2022/03/24 01:30:19;;;;;;;13.60;9.15;;;;;;;7.23;42.98;96296.41;4954032;28;20062;-70
2022/03/24 01:32:45;;;;;;;13.55;8.10;;;;;;;7.49;42.86;96342.38;4954883;29;20035;-70
2022/03/24 01:35:11;;;;;;;9.98;8.57;;;;;;;7.22;43.44;96295.63;4954806;29;20031;-70
2022/03/24 01:37:37;;;;;;;9.45;8.00;;;;;;;7.59;43.41;96358.34;4954502;28;20477;-70
2022/03/24 01:40:05;;;;;;;9.98;8.20;;;;;;;7.63;43.23;96356.78;4953250;29;20027;-69
2022/03/24 01:42:34;;;;;;;16.38;8.35;;;;;;;7.40;43.08;96310.28;4953920;29;20043;-70
2022/03/24 01:44:59;;;;;;;9.38;7.65;;;;;;;7.67;43.37;96339.31;4954564;29;20030;-71
2022/03/24 01:47:24;;;;;;;10.50;7.82;;;;;;;7.24;43.00;96298.81;4953289;29;20031;-70
2022/03/24 01:49:50;;;;;;;10.65;8.40;;;;;;;7.35;43.88;96343.88;4936716;29;20118;-68
2022/03/24 01:52:18;;;;;;;9.50;8.18;;;;;;;7.39;44.45;96350.25;4953867;28;20110;-70
2022/03/24 01:54:48;;;;;;;12.30;8.35;;;;;;;7.49;43.92;96345.84;4954356;28;20027;-70
2022/03/24 01:57:16;;;;;;;11.93;8.93;;;;;;;7.34;43.87;96331.69;4952929;29;20365;-70
2022/03/24 01:59:41;;;;;;;10.75;7.55;;;;;;;7.37;43.90;96331.16;4953889;29;20086;-70
2022/03/24 02:02:09;;;;;;;12.40;8.38;;;;;;;7.65;43.68;96338.00;4954107;29;20035;-70
2022/03/24 02:04:35;;;;;;;10.32;8.32;;;;;;;7.68;42.97;96340.13;4954049;29;20029;-70
2022/03/24 02:07:05;;;;;;;12.75;8.88;;;;;;;7.46;43.33;96301.31;4952969;28;20474;-69
2022/03/24 02:09:32;;;;;;;11.35;8.95;;;;;;;7.58;43.78;96348.81;4953769;28;20023;-71
2022/03/24 02:11:57;;;;;;;9.85;8.07;;;;;;;7.22;44.03;96318.66;4953980;28;20027;-71
2022/03/24 02:14:23;;;;;;;14.52;8.68;;;;;;;7.49;43.77;96319.34;4954072;29;20484;-70
2022/03/24 02:16:49;;;;;;;11.57;8.25;;;;;;;7.62;43.16;96334.00;4954112;28;20031;-70
2022/03/24 02:19:22;;;;;;;12.00;8.30;;;;;;;7.14;45.26;96354.28;4952494;29;20494;-70
2022/03/24 02:21:50;;;;;;;18.40;9.88;;;;;;;6.65;46.67;96325.28;4953815;28;20031;-70
2022/03/24 02:24:17;;;;;;;17.10;10.50;;;;;;;6.87;45.13;96303.28;4952073;28;20470;-70
2022/03/24 02:26:44;;;;;;;18.50;9.77;;;;;;;7.29;44.71;96319.22;4952610;29;20024;-69
2022/03/24 02:29:16;;;;;;;13.88;10.25;;;;;;;7.35;43.81;96315.56;4936386;29;20027;-70
2022/03/24 02:31:45;;;;;;;15.27;9.93;;;;;;;7.43;44.62;96327.53;4953566;29;20038;-70
2022/03/24 02:36:57;;;;;;;13.93;9.85;;;;;;;6.56;45.66;96260.69;4953840;29;20546;-70
2022/03/24 02:39:22;;;;;;;12.77;9.05;;;;;;;7.07;45.59;96323.81;4953520;29;20043;-70
2022/03/24 02:41:51;;;;;;;15.48;10.35;;;;;;;7.20;44.39;96312.78;4953550;29;20484;-70
2022/03/24 02:44:18;;;;;;;14.68;9.40;;;;;;;6.58;44.99;96234.00;4953572;29;20106;-69
2022/03/24 02:46:47;;;;;;;17.17;10.10;;;;;;;6.77;46.52;96311.91;4953670;29;20031;-69
2022/03/24 02:49:13;;;;;;;14.82;10.43;;;;;;;6.76;46.91;96339.41;4953276;29;20384;-69
2022/03/24 02:51:39;;;;;;;11.90;10.23;;;;;;;6.76;47.38;96336.78;4953172;28;20035;-71
2022/03/24 02:54:04;;;;;;;18.42;10.30;;;;;;;7.26;45.51;96331.09;4936108;29;20034;-70
2022/03/24 02:56:30;;;;;;;15.82;10.43;;;;;;;6.77;46.05;96294.19;4953655;28;20023;-71
2022/03/24 02:58:57;;;;;;;12.07;9.85;;;;;;;7.15;45.91;96333.91;4953244;28;20388;-69
2022/03/24 03:01:25;;;;;;;12.45;9.25;;;;;;;6.99;46.69;96298.59;4936042;29;20039;-69
2022/03/24 03:03:52;;;;;;;13.82;9.45;;;;;;;7.24;45.76;96333.19;4953329;29;20120;-69
2022/03/24 03:06:19;;;;;;;15.35;10.43;;;;;;;7.29;45.53;96332.44;4953470;28;20035;-69
2022/03/24 03:08:49;;;;;;;18.33;9.95;;;;;;;6.86;47.27;96352.72;4936047;29;20111;-69
2022/03/24 03:11:20;;;;;;;15.13;9.38;;;;;;;7.09;46.48;96342.88;4953320;29;20480;-69
2022/03/24 03:13:46;;;;;;;14.13;10.32;;;;;;;7.25;46.15;96344.59;4952146;29;20565;-69
2022/03/24 03:16:12;;;;;;;14.57;9.75;;;;;;;7.08;45.90;96323.56;4952685;28;20039;-68
2022/03/24 03:18:39;;;;;;;13.43;9.57;;;;;;;7.15;45.91;96318.03;4952431;28;20393;-69
2022/03/24 03:21:04;;;;;;;12.43;8.75;;;;;;;7.19;45.78;96321.78;4953299;28;20489;-69
2022/03/24 03:23:30;;;;;;;15.65;10.15;;;;;;;7.42;45.67;96333.84;4953288;28;20027;-69
2022/03/24 03:25:56;;;;;;;14.50;9.93;;;;;;;7.13;45.21;96281.25;4953161;29;20547;-69
2022/03/24 03:28:22;;;;;;;11.68;9.38;;;;;;;7.40;45.63;96325.38;4951712;28;20424;-69
2022/03/24 03:30:47;;;;;;;10.82;9.38;;;;;;;7.04;45.36;96256.31;4951789;29;20042;-69
2022/03/24 03:33:13;;;;;;;11.98;9.07;;;;;;;7.53;45.05;96335.53;4953044;28;20058;-69
2022/03/24 03:35:39;;;;;;;10.27;9.23;;;;;;;7.33;45.41;96316.88;4951927;28;20082;-69
2022/03/24 03:38:04;;;;;;;12.38;9.57;;;;;;;7.36;45.23;96311.06;4956309;29;20110;-69
2022/03/24 03:40:30;;;;;;;14.15;9.27;;;;;;;7.41;45.35;96327.75;4956478;28;20035;-69
2022/03/24 03:42:56;;;;;;;10.88;9.55;;;;;;;7.31;45.32;96314.47;4955444;28;20024;-69
2022/03/24 03:45:21;;;;;;;10.57;9.05;;;;;;;7.52;45.37;96345.34;4956857;28;20042;-70
2022/03/24 03:47:47;;;;;;;14.30;8.25;;;;;;;7.17;45.26;96289.50;4939534;29;20456;-69
2022/03/24 03:50:12;;;;;;;10.77;8.65;;;;;;;7.18;45.13;96294.53;4938947;29;20030;-69
2022/03/24 03:52:37;;;;;;;13.35;8.93;;;;;;;7.41;45.32;96324.31;4956478;28;20078;-69
2022/03/24 03:55:04;;;;;;;13.60;9.13;;;;;;;7.06;44.74;96274.56;4956610;29;20081;-69
2022/03/24 03:57:30;;;;;;;18.58;8.60;;;;;;;7.24;44.79;96312.03;4956570;29;20119;-69
2022/03/24 03:59:55;;;;;;;12.93;8.57;;;;;;;7.22;45.30;96308.84;4938909;29;20512;-70
2022/03/24 04:02:20;;;;;;;13.48;9.25;;;;;;;7.08;45.43;96293.66;4956293;28;20034;-69
2022/03/24 04:04:46;;;;;;;12.25;8.95;;;;;;;7.20;45.27;96315.44;4956208;28;20596;-69
2022/03/24 04:07:12;;;;;;;12.35;8.20;;;;;;;7.38;45.53;96349.47;4939249;29;20512;-70
2022/03/24 04:09:38;;;;;;;8.93;8.02;;;;;;;7.38;44.94;96348.66;4956154;29;20428;-71
2022/03/24 04:12:04;;;;;;;12.05;8.77;;;;;;;7.27;45.25;96332.72;4955116;29;20042;-70
2022/03/24 04:14:29;;;;;;;11.90;9.20;;;;;;;7.35;45.68;96349.97;4956287;28;20034;-70
2022/03/24 04:16:58;;;;;;;11.07;8.50;;;;;;;7.21;45.26;96324.97;4938960;29;20027;-70
2022/03/24 04:19:25;;;;;;;10.90;8.52;;;;;;;6.77;45.76;96257.19;4955981;28;20020;-70
2022/03/24 04:21:51;;;;;;;11.30;8.15;;;;;;;7.15;45.49;96318.84;4955012;29;20506;-69
2022/03/24 04:24:16;;;;;;;10.60;8.70;;;;;;;6.78;45.38;96261.41;4955950;28;20035;-69
2022/03/24 04:26:42;;;;;;;10.93;7.97;;;;;;;7.24;45.44;96332.41;4938824;29;20027;-69
2022/03/24 04:29:07;;;;;;;26.15;9.48;;;;;;;7.28;45.52;96344.88;4955888;28;20027;-69
2022/03/24 04:31:34;;;;;;;17.45;8.77;;;;;;;6.94;45.88;96285.34;4955838;28;20404;-68
2022/03/24 04:33:59;;;;;;;12.98;8.13;;;;;;;6.86;45.60;96278.69;4955797;29;20033;-69
2022/03/24 04:36:25;;;;;;;10.57;7.40;;;;;;;7.12;45.21;96313.28;4938678;29;20035;-69
2022/03/24 04:38:50;;;;;;;13.18;8.50;;;;;;;7.07;46.06;96314.03;4955607;29;20031;-69
2022/03/24 04:41:16;;;;;;;18.75;8.10;;;;;;;7.07;45.49;96313.22;4955792;28;20035;-69
2022/03/24 04:43:42;;;;;;;18.27;7.78;;;;;;;7.10;45.46;96318.00;4955772;29;20126;-69
2022/03/24 04:46:08;;;;;;;13.07;7.95;;;;;;;6.74;45.80;96264.81;4954512;28;20114;-70
2022/03/24 04:48:36;;;;;;;12.25;7.78;;;;;;;7.16;45.62;96324.94;4953742;28;20023;-69
2022/03/24 04:51:03;;;;;;;11.93;7.63;;;;;;;7.24;45.47;96345.63;4938040;29;20473;-70
2022/03/24 04:53:29;;;;;;;9.65;8.05;;;;;;;6.85;45.55;96284.19;4955471;29;20058;-69
2022/03/24 04:55:55;;;;;;;10.25;8.00;;;;;;;7.06;45.47;96314.25;4955498;28;20491;-71
2022/03/24 04:58:20;;;;;;;9.38;7.38;;;;;;;7.04;45.93;96327.75;4955498;29;20032;-69
2022/03/24 05:00:46;;;;;;;9.73;7.63;;;;;;;6.72;45.50;96262.44;4954838;28;20496;-70
2022/03/24 05:03:11;;;;;;;11.30;7.03;;;;;;;6.83;45.46;96281.81;4938086;29;20020;-71
2022/03/24 05:05:37;;;;;;;10.82;6.88;;;;;;;6.88;45.90;96307.50;4955334;29;20040;-69
2022/03/24 05:08:03;;;;;;;7.38;6.68;;;;;;;7.24;46.16;96354.38;4955248;28;20054;-71
2022/03/24 05:10:29;;;;;;;9.25;7.10;;;;;;;7.25;45.21;96355.16;4937339;29;20484;-69
2022/03/24 05:12:55;;;;;;;8.13;6.63;;;;;;;7.07;45.95;96327.25;4954986;28;20031;-71
2022/03/24 05:15:20;;;;;;;12.88;7.35;;;;;;;7.22;45.91;96337.16;4955156;29;20031;-70
2022/03/24 05:17:46;;;;;;;12.45;6.68;;;;;;;7.31;45.55;96351.50;4955061;29;20024;-70
2022/03/24 05:20:12;;;;;;;11.40;7.15;;;;;;;6.91;45.62;96280.53;4937513;29;20047;-70
2022/03/24 05:22:37;;;;;;;7.40;6.50;;;;;;;7.39;45.74;96348.41;4954619;29;20033;-70
2022/03/24 05:25:04;;;;;;;10.18;6.72;;;;;;;6.93;45.31;96267.88;4954917;29;20027;-69
2022/03/24 05:27:29;;;;;;;27.98;9.48;;;;;;;7.26;45.01;96309.13;4954973;29;20027;-71
2022/03/24 05:29:55;;;;;;;18.77;7.10;;;;;;;6.98;45.36;96257.34;4954294;28;20082;-69
2022/03/24 05:32:20;;;;;;;10.15;7.15;;;;;;;7.28;44.78;96302.53;4954709;29;20031;-69
2022/03/24 05:34:46;;;;;;;10.18;6.32;;;;;;;7.69;44.86;96345.16;4937462;29;20022;-70
2022/03/24 05:37:13;;;;;;;6.75;6.05;;;;;;;7.75;45.11;96348.66;4954718;29;20505;-69
2022/03/24 05:39:38;;;;;;;7.00;6.30;;;;;;;7.61;44.43;96310.41;4954476;29;20038;-69
2022/03/24 05:42:04;;;;;;;12.82;6.05;;;;;;;7.67;44.63;96312.84;4953162;29;20027;-69
2022/03/24 05:44:30;;;;;;;8.77;6.22;;;;;;;7.96;44.61;96350.34;4954404;29;20027;-69
2022/03/24 05:46:56;;;;;;;10.70;6.65;;;;;;;7.66;43.97;96298.00;4937274;29;20023;-70
2022/03/24 05:49:21;;;;;;;7.93;6.40;;;;;;;7.85;44.46;96322.22;4954110;28;20032;-70
2022/03/24 05:51:49;;;;;;;7.95;6.60;;;;;;;7.73;43.89;96284.56;4954382;28;20026;-71
2022/03/24 05:54:17;;;;;;;9.23;6.18;;;;;;;8.24;43.63;96353.66;4954167;28;20031;-71
2022/03/24 05:56:43;;;;;;;9.15;6.40;;;;;;;8.31;43.92;96357.66;4954386;29;20098;-69
2022/03/24 05:59:09;;;;;;;8.38;7.07;;;;;;;8.23;43.53;96344.91;4953104;28;20497;-70
2022/03/24 06:01:36;;;;;;;8.25;7.03;;;;;;;8.24;43.61;96345.69;4953857;29;20038;-71
2022/03/24 06:04:02;;;;;;;7.38;6.30;;;;;;;8.22;43.70;96329.25;4954175;28;20055;-71
2022/03/24 06:06:28;;;;;;;9.20;7.28;;;;;;;8.02;44.50;96359.91;4954312;29;20027;-71
2022/03/24 06:08:54;;;;;;;8.02;6.40;;;;;;;8.19;43.79;96367.69;4953872;28;20440;-71
2022/03/24 06:11:20;;;;;;;8.60;6.70;;;;;;;8.43;43.19;96362.78;4953721;29;20035;-70
2022/03/24 06:13:46;;;;;;;7.80;7.00;;;;;;;8.43;42.85;96323.00;4953904;28;20032;-71
2022/03/24 06:16:15;;;;;;;10.90;6.63;;;;;;;8.74;42.93;96361.00;4954489;28;20046;-72
2022/03/24 06:18:41;;;;;;;7.90;6.00;;;;;;;8.86;42.26;96339.56;4954314;29;20381;-71
2022/03/24 06:21:08;;;;;;;8.65;6.53;;;;;;;9.10;42.28;96366.38;4954028;28;20379;-71
2022/03/24 06:23:33;;;;;;;9.88;6.32;;;;;;;8.52;41.80;96318.78;4952499;28;20023;-70
2022/03/24 06:25:59;;;;;;;14.02;6.63;;;;;;;9.19;41.99;96348.88;4952636;29;20037;-70
2022/03/24 06:28:25;;;;;;;11.35;6.82;;;;;;;9.22;41.46;96327.09;4953470;29;20027;-70
2022/03/24 06:30:51;;;;;;;6.60;5.80;;;;;;;9.37;40.94;96324.44;4953094;28;20042;-70
2022/03/24 06:33:17;;;;;;;11.90;6.13;;;;;;;9.64;40.97;96345.41;4953497;28;20110;-70
2022/03/24 06:35:43;;;;;;;11.23;6.00;;;;;;;9.69;40.83;96339.28;4953574;29;20604;-70
2022/03/24 06:38:10;;;;;;;13.80;6.70;;;;;;;10.01;40.68;96362.06;4953793;29;20027;-71
2022/03/24 06:40:38;;;;;;;20.70;7.28;;;;;;;9.84;40.10;96312.69;4953156;29;20158;-70
2022/03/24 06:43:05;;;;;;;16.65;7.20;;;;;;;10.29;40.32;96361.50;4953419;29;20024;-70
2022/03/24 06:45:30;;;;;;;15.68;6.93;;;;;;;10.25;39.98;96341.81;4953201;28;20032;-71
2022/03/24 06:47:55;;;;;;;13.43;6.38;;;;;;;10.50;39.49;96350.75;4953450;29;20043;-71
2022/03/24 06:50:21;;;;;;;19.67;7.50;;;;;;;10.47;38.93;96324.69;4951742;29;20035;-71
2022/03/24 06:52:46;;;;;;;12.23;6.43;;;;;;;10.13;38.95;96293.44;4953365;28;20027;-71
2022/03/24 06:55:13;;;;;;;8.30;5.75;;;;;;;10.34;38.94;96350.81;4936108;29;20063;-69
2022/03/24 06:57:38;;;;;;;10.43;6.57;;;;;;;10.28;38.73;96332.47;4953213;28;20492;-70
2022/03/24 07:00:05;;;;;;;8.40;6.15;;;;;;;10.90;38.22;96342.56;4953255;29;20035;-69
2022/03/24 07:02:31;;;;;;;6.40;5.53;;;;;;;10.98;37.55;96359.00;4953088;28;20031;-65
2022/03/24 07:04:57;;;;;;;8.45;5.88;;;;;;;11.42;37.36;96380.28;4954109;28;20442;-67
2022/03/24 07:07:23;;;;;;;7.75;5.55;;;;;;;11.37;37.18;96327.81;4972823;28;20050;-68
2022/03/24 07:09:48;;;;;;;13.25;6.30;;;;;;;11.27;36.56;96319.91;4955116;28;20069;-67
2022/03/24 07:12:17;;;;;;;15.60;5.43;;;;;;;11.28;37.60;96380.09;4976080;28;20407;-67
2022/03/24 07:14:42;;;;;;;7.10;5.53;;;;;;;11.93;36.39;96367.31;4959191;28;20031;-70
2022/03/24 07:17:08;;;;;;;7.30;5.88;;;;;;;11.90;35.68;96348.41;4976530;28;20031;-66
2022/03/24 07:19:33;;;;;;;6.50;5.82;;;;;;;11.61;35.90;96373.16;4958910;28;20031;-66
2022/03/24 07:21:58;;;;;;;7.82;6.03;;;;;;;12.02;35.35;96326.69;4959545;28;20039;-66
2022/03/24 07:24:24;;;;;;;7.30;5.82;;;;;;;12.11;35.63;96379.13;4957202;29;20054;-68
2022/03/24 07:26:49;;;;;;;7.78;5.97;;;;;;;12.21;35.54;96339.00;4957157;29;20373;-67
2022/03/24 07:29:14;;;;;;;9.27;5.93;;;;;;;12.29;35.17;96342.94;4941123;28;20035;-67
2022/03/24 07:31:41;;;;;;;9.05;6.00;;;;;;;12.82;34.84;96350.00;4976073;28;20066;-67
2022/03/24 07:34:07;;;;;;;11.88;6.28;;;;;;;12.97;34.18;96352.44;4976188;28;20550;-68
2022/03/24 07:36:32;;;;;;;8.80;6.35;;;;;;;12.93;34.42;96324.72;4945984;28;20031;-67
2022/03/24 07:38:58;;;;;;;8.95;6.13;;;;;;;13.15;34.08;96335.59;4956909;29;20050;-67
2022/03/24 07:41:24;;;;;;;6.40;5.13;;;;;;;13.51;34.08;96370.63;4956555;29;20081;-68
2022/03/24 07:43:50;;;;;;;12.73;5.28;;;;;;;13.51;33.77;96357.25;4956608;29;20031;-68
2022/03/24 07:46:16;;;;;;;12.60;6.40;;;;;;;13.01;34.82;96375.63;4956498;29;20055;-68
2022/03/24 07:48:46;;;;;;;13.13;7.00;;;;;;;12.79;34.64;96338.00;4939170;29;20058;-67
2022/03/24 07:51:13;;;;;;;9.68;6.43;;;;;;;12.89;34.67;96329.84;4964213;28;20077;-67
2022/03/24 07:53:47;;;;;;;8.20;6.07;;;;;;;13.89;33.68;96369.72;4958452;28;20031;-67
2022/03/24 07:56:13;;;;;;;6.72;5.95;;;;;;;13.67;33.35;96373.84;4975774;28;20546;-67
2022/03/24 07:58:39;;;;;;;8.80;5.53;;;;;;;13.92;33.26;96364.59;4975505;28;20035;-67
2022/03/24 08:01:06;;;;;;;9.25;5.55;;;;;;;13.65;32.88;96353.81;4975690;28;20082;-67
2022/03/24 08:03:31;;;;;;;7.00;5.57;;;;;;;14.18;32.49;96330.13;4975664;28;20109;-68
2022/03/24 08:05:57;;;;;;;7.28;5.68;;;;;;;14.72;31.60;96366.00;4969681;28;20103;-67
2022/03/24 08:08:23;;;;;;;9.32;5.60;;;;;;;14.01;32.12;96317.31;4956140;28;20043;-67
2022/03/24 08:10:50;;;;;;;11.13;5.82;;;;;;;14.46;32.03;96362.22;4956252;29;20514;-67
2022/03/24 08:13:18;;;;;;;9.85;5.50;;;;;;;15.02;31.29;96364.56;4956161;29;20034;-67
2022/03/24 08:15:44;;;;;;;8.38;4.72;;;;;;;15.26;30.81;96358.13;4956215;28;20035;-67
2022/03/24 08:18:11;;;;;;;5.97;5.05;;;;;;;15.06;30.39;96317.31;4956228;29;20031;-68
2022/03/24 08:20:38;;;;;;;7.03;5.38;;;;;;;15.18;30.32;96367.69;4938455;28;20027;-68
2022/03/24 08:23:05;;;;;;;8.07;5.70;;;;;;;15.38;30.35;96334.25;4955136;28;20165;-67
2022/03/24 08:25:31;;;;;;;9.88;5.78;;;;;;;15.82;29.80;96359.50;4956163;29;20024;-68
2022/03/24 08:27:58;;;;;;;8.57;5.43;;;;;;;15.97;30.46;96366.31;4938766;29;20538;-70
2022/03/24 08:30:24;;;;;;;10.82;5.53;;;;;;;15.85;29.99;96318.59;4955543;29;20035;-72
2022/03/24 08:32:49;;;;;;;9.73;6.47;;;;;;;15.90;29.51;96323.06;4956035;29;20106;-72
2022/03/24 08:35:15;;;;;;;9.35;5.47;;;;;;;15.65;29.47;96356.69;4955939;29;20491;-69
2022/03/24 08:37:41;;;;;;;10.98;5.47;;;;;;;15.52;29.01;96308.16;4971841;28;20035;-68
2022/03/24 08:40:07;;;;;;;8.98;6.13;;;;;;;15.90;28.99;96361.41;4974850;28;20039;-67
2022/03/24 08:42:41;;;;;;;7.75;5.13;;;;;;;16.36;28.22;96360.19;4957533;28;20066;-68
2022/03/24 08:45:08;;;;;;;9.27;5.95;;;;;;;16.68;27.79;96336.72;4974985;28;20038;-69
2022/03/24 08:47:34;;;;;;;8.57;5.40;;;;;;;16.15;27.54;96357.28;4975077;28;20118;-68
2022/03/24 08:50:00;;;;;;;6.78;5.47;;;;;;;15.92;27.71;96324.34;4974505;28;20102;-69
2022/03/24 08:52:27;;;;;;;5.50;5.07;;;;;;;15.60;28.04;96294.00;4956417;28;20039;-67
2022/03/24 08:54:54;;;;;;;6.72;6.05;;;;;;;16.79;26.73;96338.06;4974742;28;20092;-66
2022/03/24 08:57:25;;;;;;;7.28;5.75;;;;;;;17.03;26.68;96308.81;4974647;28;20110;-69
2022/03/24 08:59:54;;;;;;;8.02;6.13;;;;;;;16.94;26.50;96307.22;4974606;28;20023;-69
2022/03/24 09:02:20;;;;;;;10.65;6.20;;;;;;;17.18;26.02;96306.75;4956944;28;20085;-68
2022/03/24 09:04:49;;;;;;;7.55;5.90;;;;;;;17.67;25.81;96361.94;4974494;28;20031;-66
2022/03/24 09:07:15;;;;;;;7.80;6.68;;;;;;;17.42;25.65;96312.44;4962462;28;20711;-70
2022/03/24 09:09:41;;;;;;;6.95;6.18;;;;;;;17.14;24.95;96293.94;4937634;29;20139;-68
2022/03/24 09:12:09;;;;;;;7.80;6.43;;;;;;;16.95;24.43;96301.56;4954893;29;20043;-66
2022/03/24 09:14:35;;;;;;;8.45;6.18;;;;;;;17.49;24.74;96295.81;4954833;29;20058;-68
2022/03/24 09:17:01;;;;;;;7.60;6.53;;;;;;;17.76;24.64;96308.09;4953573;29;20404;-71
2022/03/24 09:19:26;;;;;;;9.60;6.85;;;;;;;17.92;23.80;96326.13;4955032;28;20496;-67
2022/03/24 09:21:52;;;;;;;8.20;7.07;;;;;;;17.55;23.55;96251.47;4937717;28;20032;-67
2022/03/24 09:24:17;;;;;;;8.13;6.93;;;;;;;18.11;23.26;96327.63;4937777;29;20031;-69
2022/03/24 09:26:42;;;;;;;7.45;6.65;;;;;;;18.04;23.14;96308.50;4954820;29;20031;-70
2022/03/24 09:29:09;;;;;;;8.25;6.68;;;;;;;18.22;23.12;96328.06;4954499;29;20023;-69
2022/03/24 09:31:35;;;;;;;7.15;6.47;;;;;;;18.42;23.06;96343.50;4954565;29;20122;-69
2022/03/24 09:34:02;;;;;;;9.85;7.03;;;;;;;18.54;22.78;96351.69;4954745;28;20027;-71
2022/03/24 09:36:29;;;;;;;8.15;7.38;;;;;;;17.70;23.54;96361.28;4936988;28;20027;-71
2022/03/24 09:38:54;;;;;;;9.00;8.15;;;;;;;16.91;23.74;96264.88;4937175;29;20637;-71
2022/03/24 09:41:20;;;;;;;9.63;7.80;;;;;;;17.05;23.90;96293.19;4954489;29;20035;-71
2022/03/24 09:43:46;;;;;;;9.82;7.65;;;;;;;17.90;23.10;96349.06;4954577;29;20380;-72
2022/03/24 09:46:12;;;;;;;13.05;8.30;;;;;;;17.20;23.23;96242.69;4954471;28;20129;-71
2022/03/24 09:48:40;;;;;;;9.80;8.80;;;;;;;17.75;22.97;96336.13;4937000;29;20035;-70
2022/03/24 09:51:05;;;;;;;9.90;8.90;;;;;;;18.16;21.67;96297.81;4936930;29;20027;-71
2022/03/24 09:53:31;;;;;;;12.18;8.05;;;;;;;17.90;22.57;96338.31;4952979;28;20114;-69
2022/03/24 09:55:56;;;;;;;13.25;9.02;;;;;;;17.60;22.92;96313.97;4954081;29;20518;-71
2022/03/24 09:58:28;;;;;;;12.65;8.45;;;;;;;18.16;22.25;96340.91;4954340;29;20035;-71
2022/03/24 10:00:53;;;;;;;12.48;8.80;;;;;;;17.53;22.66;96340.59;4937069;29;20118;-70
2022/03/24 10:03:21;;;;;;;11.57;8.27;;;;;;;18.34;21.29;96296.63;4953067;29;20118;-69
2022/03/24 10:05:53;;;;;;;10.48;8.65;;;;;;;18.70;20.10;96339.25;4954361;29;20059;-71
2022/03/24 10:08:19;;;;;;;12.38;8.55;;;;;;;19.15;20.21;96343.25;4969610;28;20035;-71
2022/03/24 10:10:44;;;;;;;10.30;8.35;;;;;;;19.03;20.02;96319.69;4955709;28;20093;-71
2022/03/24 10:13:10;;;;;;;10.38;8.55;;;;;;;19.29;20.26;96305.19;4956087;28;20033;-71
2022/03/24 10:15:38;;;;;;;10.40;8.90;;;;;;;19.43;20.21;96325.38;4973456;28;20557;-71
2022/03/24 10:18:04;;;;;;;12.07;9.07;;;;;;;19.03;20.03;96327.75;4973504;28;20030;-71
2022/03/24 10:20:30;;;;;;;14.50;9.80;;;;;;;18.44;21.07;96338.59;4955543;28;20512;-71
2022/03/24 10:22:57;;;;;;;14.95;8.98;;;;;;;19.45;20.32;96336.63;4961223;28;20468;-70
2022/03/24 10:25:33;;;;;;;11.15;10.05;;;;;;;19.42;19.42;96337.28;4953860;29;20039;-71
2022/03/24 10:28:09;;;;;;;10.25;8.02;;;;;;;19.58;18.54;96334.75;4936717;29;20023;-68
2022/03/24 10:30:52;;;;;;;10.98;8.43;;;;;;;19.87;18.24;96330.38;4953208;29;20027;-66
2022/03/24 10:33:28;;;;;;;16.13;7.70;;;;;;;20.01;18.71;96330.84;4953707;29;20039;-66
2022/03/24 10:36:19;;;;;;;9.82;8.93;;;;;;;19.89;19.78;96328.13;4953690;29;20023;-67
2022/03/24 10:38:48;;;;;;;13.52;9.18;;;;;;;20.17;19.69;96315.56;4970507;28;20023;-68
2022/03/24 10:41:14;;;;;;;9.88;8.73;;;;;;;20.18;19.30;96327.94;4972793;28;20039;-68
2022/03/24 10:43:40;;;;;;;7.55;6.93;;;;;;;19.61;18.14;96312.53;4972911;28;20026;-67
2022/03/24 10:46:14;;;;;;;8.93;8.07;;;;;;;19.70;18.50;96269.25;4972657;28;20027;-68
2022/03/24 10:48:40;;;;;;;8.18;7.43;;;;;;;19.52;17.96;96295.63;4971287;28;20027;-69
2022/03/24 10:51:06;;;;;;;9.32;8.07;;;;;;;19.74;17.82;96299.84;4972570;28;20549;-69
2022/03/24 10:53:42;;;;;;;8.88;7.10;;;;;;;19.98;18.19;96316.09;4939881;28;20027;-69
2022/03/24 10:56:25;;;;;;;9.85;8.02;;;;;;;20.08;18.15;96320.28;4952244;29;20021;-68
2022/03/24 10:58:57;;;;;;;9.40;8.43;;;;;;;19.95;18.24;96288.97;4951732;28;20446;-69
2022/03/24 11:01:26;;;;;;;11.93;8.90;;;;;;;20.39;18.16;96314.34;4952948;28;20027;-69
2022/03/24 11:03:52;;;;;;;11.23;9.30;;;;;;;20.23;18.36;96311.53;4953248;29;20610;-66
2022/03/24 11:06:19;;;;;;;12.23;8.90;;;;;;;19.96;18.61;96285.16;4935941;29;20053;-66
2022/03/24 11:08:54;;;;;;;14.40;9.95;;;;;;;19.73;18.36;96312.56;4953333;28;20090;-68
2022/03/24 11:11:20;;;;;;;13.25;9.90;;;;;;;19.64;18.22;96309.16;4953082;29;20126;-69
2022/03/24 11:13:51;;;;;;;11.23;9.25;;;;;;;19.32;18.15;96304.53;4953216;29;20492;-70
2022/03/24 11:16:18;;;;;;;9.77;8.98;;;;;;;19.95;18.21;96305.19;4953368;28;20106;-68
2022/03/24 11:18:44;;;;;;;9.73;8.82;;;;;;;19.79;18.10;96310.44;4953065;28;20527;-68
2022/03/24 11:21:33;;;;;;;11.40;10.15;;;;;;;20.26;17.95;96299.22;4935962;29;20035;-68
2022/03/24 11:24:00;;;;;;;11.18;10.13;;;;;;;20.39;17.92;96298.13;4951891;28;20093;-68
2022/03/24 11:26:26;;;;;;;11.30;10.30;;;;;;;20.46;17.83;96265.94;4953261;29;20020;-68
2022/03/24 11:28:56;;;;;;;11.55;10.40;;;;;;;19.94;17.44;96252.28;4935927;29;20027;-66
2022/03/24 11:31:28;;;;;;;34.83;27.83;;;;;;;20.53;24.93;96302.44;4951227;29;20432;-64
2022/03/24 11:33:56;;;;;;;18.77;15.45;;;;;;;21.00;20.80;96289.16;4952952;29;20433;-65